createdAt,value
2023-03-10T00:01:26.167Z,19.83
2023-03-10T00:03:55.660Z,19.35
2023-03-10T00:06:28.254Z,16.50
2023-03-10T00:08:55.997Z,15.73
2023-03-10T00:11:23.627Z,14.63
2023-03-10T00:13:51.027Z,18.75
2023-03-10T00:16:27.089Z,15.55
2023-03-10T00:18:54.782Z,17.77
2023-03-10T00:21:25.021Z,18.38
2023-03-10T00:23:52.813Z,16.25
2023-03-10T00:26:21.568Z,18.08
2023-03-10T00:28:49.620Z,17.45
2023-03-10T00:31:19.304Z,18.27
2023-03-10T00:33:46.742Z,18.02
2023-03-10T00:36:15.162Z,18.67
2023-03-10T00:38:43.957Z,17.45
2023-03-10T00:41:15.613Z,17.20
2023-03-10T00:43:43.613Z,16.77
2023-03-10T00:46:11.500Z,17.13
2023-03-10T00:48:39.703Z,16.25
2023-03-10T00:51:07.347Z,19.55
2023-03-10T00:53:36.671Z,19.20
2023-03-10T00:56:08.262Z,17.35
2023-03-10T00:58:36.117Z,19.15
2023-03-10T01:01:04.998Z,16.75
2023-03-10T01:03:36.098Z,17.92
2023-03-10T01:08:30.529Z,15.45
2023-03-10T01:10:57.747Z,16.48
2023-03-10T01:13:25.004Z,17.02
2023-03-10T01:15:52.649Z,17.17
2023-03-10T01:18:21.420Z,19.05
2023-03-10T01:20:49.363Z,15.70
2023-03-10T01:23:22.684Z,13.00
2023-03-10T01:25:51.107Z,16.92
2023-03-10T01:28:20.738Z,19.35
2023-03-10T01:30:48.836Z,21.92
2023-03-10T01:33:17.990Z,19.67
2023-03-10T01:35:45.663Z,21.60
2023-03-10T01:38:13.475Z,20.63
2023-03-10T01:40:41.404Z,20.33
2023-03-10T01:43:20.840Z,20.73
2023-03-10T01:45:48.293Z,14.15
2023-03-10T01:48:19.986Z,22.48
2023-03-10T01:50:56.479Z,16.90
2023-03-10T01:53:25.978Z,18.55
2023-03-10T01:55:59.081Z,20.17
2023-03-10T01:58:33.122Z,16.73
2023-03-10T02:01:01.258Z,20.60
2023-03-10T02:03:34.526Z,17.77
2023-03-10T02:06:08.868Z,20.50
2023-03-10T02:08:44.565Z,16.67
2023-03-10T02:11:14.984Z,21.00
2023-03-10T02:13:43.539Z,20.50
2023-03-10T02:16:11.302Z,19.70
2023-03-10T02:18:41.409Z,23.05
2023-03-10T02:21:28.842Z,18.83
2023-03-10T02:24:11.638Z,19.13
2023-03-10T02:26:50.545Z,20.17
2023-03-10T02:29:48.741Z,20.35
2023-03-10T02:32:25.418Z,25.70
2023-03-10T02:34:53.139Z,22.25
2023-03-10T02:37:30.644Z,23.17
2023-03-10T02:39:58.798Z,29.73
2023-03-10T02:42:35.483Z,25.77
2023-03-10T02:45:04.288Z,26.77
2023-03-10T02:47:33.082Z,25.35
2023-03-10T02:50:00.368Z,25.13
2023-03-10T02:52:44.887Z,23.13
2023-03-10T02:55:17.102Z,26.27
2023-03-10T02:57:44.971Z,25.30
2023-03-10T03:00:13.289Z,25.38
2023-03-10T03:02:41.180Z,27.55
2023-03-10T03:05:08.996Z,26.52
2023-03-10T03:07:36.343Z,22.88
2023-03-10T03:10:04.868Z,23.33
2023-03-10T03:12:32.181Z,22.27
2023-03-10T03:14:59.604Z,22.77
2023-03-10T03:17:28.101Z,24.77
2023-03-10T03:19:55.592Z,22.35
2023-03-10T03:22:23.656Z,24.50
2023-03-10T03:24:51.033Z,25.05
2023-03-10T03:27:18.433Z,20.95
2023-03-10T03:29:46.033Z,25.92
2023-03-10T03:32:14.057Z,24.95
2023-03-10T03:34:41.484Z,23.13
2023-03-10T03:37:09.856Z,24.70
2023-03-10T03:39:41.982Z,22.40
2023-03-10T03:42:10.040Z,24.60
2023-03-10T03:44:44.630Z,25.23
2023-03-10T03:47:12.709Z,24.60
2023-03-10T03:49:40.283Z,25.23
2023-03-10T03:52:08.226Z,24.73
2023-03-10T03:54:35.951Z,23.38
2023-03-10T03:57:03.797Z,24.02
2023-03-10T03:59:31.728Z,27.50
2023-03-10T04:01:59.173Z,27.85
2023-03-10T04:04:26.884Z,27.52
2023-03-10T04:06:55.924Z,36.05
2023-03-10T04:09:23.925Z,33.53
2023-03-10T04:11:51.748Z,31.90
2023-03-10T04:14:20.857Z,36.97
2023-03-10T04:16:48.378Z,41.35
2023-03-10T04:19:16.239Z,40.53
2023-03-10T04:21:47.196Z,45.35
2023-03-10T04:24:14.834Z,46.08
2023-03-10T04:26:42.867Z,45.05
2023-03-10T04:29:10.661Z,48.17
2023-03-10T04:31:41.150Z,51.55
2023-03-10T04:34:10.485Z,47.50
2023-03-10T04:36:39.425Z,45.60
2023-03-10T04:39:07.117Z,51.72
2023-03-10T04:41:34.847Z,48.60
2023-03-10T04:44:03.494Z,47.83
2023-03-10T04:46:32.766Z,45.90
2023-03-10T04:49:01.275Z,47.92
2023-03-10T04:51:28.686Z,43.28
2023-03-10T04:53:57.855Z,44.10
2023-03-10T04:56:30.054Z,39.35
2023-03-10T04:58:57.948Z,37.92
2023-03-10T05:01:26.066Z,40.97
2023-03-10T05:04:04.317Z,37.65
2023-03-10T05:06:33.091Z,36.17
2023-03-10T05:09:20.617Z,33.00
2023-03-10T05:11:51.786Z,34.80
2023-03-10T05:14:19.180Z,30.77
2023-03-10T05:16:48.807Z,33.88
2023-03-10T05:19:17.256Z,30.30
2023-03-10T05:21:45.044Z,27.08
2023-03-10T05:24:12.514Z,28.77
2023-03-10T05:26:40.091Z,26.55
2023-03-10T05:29:07.734Z,24.27
2023-03-10T05:31:56.472Z,26.52
2023-03-10T05:34:30.826Z,27.33
2023-03-10T05:37:00.973Z,24.42
2023-03-10T05:39:29.174Z,25.33
2023-03-10T05:41:59.229Z,24.70
2023-03-10T05:44:29.308Z,26.35
2023-03-10T05:46:56.736Z,26.73
2023-03-10T05:49:24.732Z,22.25
2023-03-10T05:51:53.069Z,25.92
2023-03-10T05:54:23.706Z,24.55
2023-03-10T05:56:51.222Z,24.58
2023-03-10T06:01:52.264Z,23.42
2023-03-10T06:04:19.897Z,27.40
2023-03-10T06:06:47.223Z,24.38
2023-03-10T06:09:14.433Z,24.67
2023-03-10T06:11:41.688Z,25.85
2023-03-10T06:14:09.769Z,24.98
2023-03-10T06:16:37.369Z,29.85
2023-03-10T06:19:04.626Z,27.13
2023-03-10T06:21:31.995Z,25.30
2023-03-10T06:24:00.606Z,27.13
2023-03-10T06:26:28.541Z,28.63
2023-03-10T06:28:55.947Z,27.35
2023-03-10T06:31:27.408Z,29.40
2023-03-10T06:33:58.690Z,33.90
2023-03-10T06:36:28.189Z,33.08
2023-03-10T06:38:56.835Z,31.80
2023-03-10T06:41:24.628Z,35.40
2023-03-10T06:43:51.939Z,36.40
2023-03-10T06:46:19.434Z,37.42
2023-03-10T06:48:46.883Z,39.50
2023-03-10T06:51:17.382Z,42.10
2023-03-10T06:53:44.972Z,41.28
2023-03-10T06:56:15.103Z,38.67
2023-03-10T06:58:43.431Z,36.97
2023-03-10T07:01:20.697Z,41.60
2023-03-10T07:03:48.396Z,41.85
2023-03-10T07:06:15.659Z,41.25
2023-03-10T07:08:43.075Z,41.55
2023-03-10T07:11:10.435Z,38.38
2023-03-10T07:13:39.414Z,39.88
2023-03-10T07:16:08.712Z,43.80
2023-03-10T07:18:36.100Z,39.70
2023-03-10T07:21:11.790Z,41.83
2023-03-10T07:23:40.240Z,34.28
2023-03-10T07:26:10.310Z,34.97
2023-03-10T07:28:37.995Z,42.85
2023-03-10T07:31:08.363Z,42.72
2023-03-10T07:33:36.194Z,42.33
2023-03-10T07:36:10.782Z,46.88
2023-03-10T07:38:38.492Z,44.75
2023-03-10T07:41:08.442Z,38.78
2023-03-10T07:43:36.104Z,39.60
2023-03-10T07:46:08.091Z,44.70
2023-03-10T07:48:35.684Z,40.67
2023-03-10T07:51:05.436Z,39.55
2023-03-10T07:53:33.214Z,46.03
2023-03-10T07:56:04.960Z,42.08
2023-03-10T07:58:35.512Z,44.70
2023-03-10T08:01:04.532Z,46.90
2023-03-10T08:03:34.164Z,41.28
2023-03-10T08:06:02.617Z,41.33
2023-03-10T08:08:30.205Z,42.90
2023-03-10T08:11:16.313Z,40.10
2023-03-10T08:13:46.265Z,47.45
2023-03-10T08:16:19.087Z,44.05
2023-03-10T08:18:46.497Z,33.10
2023-03-10T08:21:13.780Z,44.35
2023-03-10T08:23:41.245Z,40.90
2023-03-10T08:26:12.546Z,35.38
2023-03-10T08:28:41.368Z,42.45
2023-03-10T08:31:14.571Z,40.85
2023-03-10T08:33:43.389Z,40.92
2023-03-10T08:36:20.094Z,40.15
2023-03-10T08:38:48.140Z,48.42
2023-03-10T08:41:24.605Z,38.15
2023-03-10T08:43:54.562Z,40.55
2023-03-10T08:46:24.780Z,37.38
2023-03-10T08:48:52.148Z,40.13
2023-03-10T08:51:21.618Z,32.83
2023-03-10T08:53:50.350Z,39.53
2023-03-10T08:56:20.717Z,30.30
2023-03-10T08:58:48.478Z,38.15
2023-03-10T09:01:17.399Z,32.75
2023-03-10T09:03:45.711Z,33.47
2023-03-10T09:06:14.107Z,30.48
2023-03-10T09:08:41.746Z,36.03
2023-03-10T09:11:14.481Z,37.88
2023-03-10T09:13:41.783Z,30.77
2023-03-10T09:16:13.734Z,35.28
2023-03-10T09:18:41.653Z,36.50
2023-03-10T09:21:11.040Z,27.42
2023-03-10T09:23:41.358Z,33.47
2023-03-10T09:26:08.891Z,32.50
2023-03-10T09:28:36.739Z,35.13
2023-03-10T09:31:05.644Z,33.28
2023-03-10T09:33:33.370Z,33.63
2023-03-10T09:36:07.388Z,32.58
2023-03-10T09:38:36.262Z,31.55
2023-03-10T09:41:38.128Z,30.58
2023-03-10T09:44:26.462Z,28.17
2023-03-10T09:47:25.978Z,28.55
2023-03-10T09:50:08.233Z,25.90
2023-03-10T09:52:47.587Z,26.95
2023-03-10T09:55:17.717Z,26.88
2023-03-10T09:57:48.249Z,29.25
2023-03-10T10:00:22.641Z,31.42
2023-03-10T10:02:56.761Z,31.63
2023-03-10T10:05:27.117Z,32.42
2023-03-10T10:07:57.503Z,27.85
2023-03-10T10:10:31.395Z,30.13
2023-03-10T10:13:05.718Z,33.92
2023-03-10T10:15:38.371Z,27.38
2023-03-10T10:18:17.829Z,27.10
2023-03-10T10:20:51.394Z,25.05
2023-03-10T10:23:38.012Z,27.63
2023-03-10T10:26:23.432Z,27.45
2023-03-10T10:29:01.595Z,31.17
2023-03-10T10:31:32.182Z,30.05
2023-03-10T10:34:04.111Z,26.40
2023-03-10T10:36:48.308Z,32.17
2023-03-10T10:39:33.778Z,28.83
2023-03-10T10:42:21.090Z,26.23
2023-03-10T10:44:55.981Z,26.67
2023-03-10T10:47:36.983Z,28.15
2023-03-10T10:50:24.302Z,27.52
2023-03-10T10:53:10.946Z,28.23
2023-03-10T10:55:40.706Z,28.02
2023-03-10T10:58:44.702Z,24.23
2023-03-10T11:01:14.996Z,27.90
2023-03-10T11:03:45.067Z,26.27
2023-03-10T11:06:24.092Z,26.88
2023-03-10T11:08:52.252Z,25.73
2023-03-10T11:11:49.693Z,25.75
2023-03-10T11:14:26.613Z,24.08
2023-03-10T11:17:25.033Z,24.55
2023-03-10T11:20:23.670Z,24.58
2023-03-10T11:23:09.444Z,29.33
2023-03-10T11:26:17.614Z,29.95
2023-03-10T11:28:47.777Z,30.40
2023-03-10T11:31:38.841Z,28.98
2023-03-10T11:34:30.334Z,32.10
2023-03-10T11:37:32.339Z,62.90
2023-03-10T11:40:19.837Z,27.92
2023-03-10T11:42:59.637Z,22.80
2023-03-10T11:45:39.654Z,27.73
2023-03-10T11:48:35.279Z,19.15
2023-03-10T11:51:05.002Z,28.60
2023-03-10T11:53:44.469Z,25.20
2023-03-10T11:56:15.062Z,24.40
2023-03-10T11:59:13.637Z,25.15
2023-03-10T12:01:53.281Z,24.88
2023-03-10T12:04:35.438Z,24.20
2023-03-10T12:07:09.129Z,25.02
2023-03-10T12:09:49.358Z,29.45
2023-03-10T12:12:22.835Z,25.38
2023-03-10T12:14:51.762Z,26.60
2023-03-10T12:17:19.547Z,26.48
2023-03-10T12:20:12.023Z,25.45
2023-03-10T12:22:50.939Z,24.90
2023-03-10T12:25:30.784Z,24.67
2023-03-10T12:28:26.225Z,26.73
2023-03-10T12:30:57.765Z,24.33
2023-03-10T12:33:31.021Z,24.60
2023-03-10T12:36:27.266Z,25.95
2023-03-10T12:39:29.151Z,21.75
2023-03-10T12:42:01.453Z,21.40
2023-03-10T12:44:50.075Z,26.80
2023-03-10T12:47:40.027Z,24.38
2023-03-10T12:50:20.291Z,23.80
2023-03-10T12:52:58.239Z,23.13
2023-03-10T12:55:28.828Z,24.00
2023-03-10T12:58:10.580Z,25.58
2023-03-10T13:00:58.454Z,27.35
2023-03-10T13:03:32.031Z,20.70
2023-03-10T13:06:01.645Z,23.58
2023-03-10T13:08:39.970Z,20.83
2023-03-10T13:11:30.374Z,25.45
2023-03-10T13:14:02.134Z,31.67
2023-03-10T13:16:30.228Z,23.73
2023-03-10T13:19:00.471Z,26.33
2023-03-10T13:21:32.390Z,24.15
2023-03-10T13:24:01.748Z,24.83
2023-03-10T13:26:30.363Z,23.75
2023-03-10T13:29:00.643Z,24.80
2023-03-10T13:31:34.735Z,24.88
2023-03-10T13:34:14.309Z,25.50
2023-03-10T13:36:41.828Z,28.92
2023-03-10T13:39:18.716Z,26.23
2023-03-10T13:41:49.286Z,26.08
2023-03-10T13:44:34.183Z,29.90
2023-03-10T13:47:04.589Z,25.48
2023-03-10T13:49:35.214Z,28.40
2023-03-10T13:52:12.781Z,27.05
2023-03-10T13:54:42.817Z,28.48
2023-03-10T13:57:29.893Z,29.80
2023-03-10T13:59:59.419Z,27.55
2023-03-10T14:02:36.949Z,23.98
2023-03-10T14:05:06.924Z,26.80
2023-03-10T14:07:37.210Z,27.10
2023-03-10T14:10:04.474Z,26.20
2023-03-10T14:12:43.493Z,25.98
2023-03-10T14:15:14.969Z,27.35
2023-03-10T14:17:46.357Z,26.77
2023-03-10T14:20:32.293Z,28.33
2023-03-10T14:23:00.774Z,29.23
2023-03-10T14:25:28.081Z,25.88
2023-03-10T14:27:59.294Z,29.00
2023-03-10T14:30:31.788Z,32.95
2023-03-10T14:33:01.096Z,33.17
2023-03-10T14:35:30.903Z,30.92
2023-03-10T14:37:58.132Z,25.83
2023-03-10T14:40:25.918Z,30.65
2023-03-10T14:42:57.728Z,29.20
2023-03-10T14:45:34.412Z,30.55
2023-03-10T14:48:05.147Z,28.77
2023-03-10T14:50:33.341Z,28.65
2023-03-10T14:53:00.729Z,28.45
2023-03-10T14:55:29.080Z,34.72
2023-03-10T14:58:00.313Z,31.75
2023-03-10T15:00:27.898Z,38.63
2023-03-10T15:02:55.439Z,34.53
2023-03-10T15:05:41.410Z,29.10
2023-03-10T15:08:14.932Z,29.25
2023-03-10T15:10:44.266Z,28.50
2023-03-10T15:13:13.818Z,26.50
2023-03-10T15:15:43.830Z,24.00
2023-03-10T15:18:14.432Z,16.45
2023-03-10T15:20:41.969Z,19.60
2023-03-10T15:23:10.059Z,24.23
2023-03-10T15:25:37.368Z,20.45
2023-03-10T15:28:04.784Z,29.20
2023-03-10T15:30:38.739Z,21.92
2023-03-10T15:33:06.110Z,20.75
2023-03-10T15:35:33.901Z,26.92
2023-03-10T15:38:01.200Z,21.33
2023-03-10T15:40:31.665Z,22.60
2023-03-10T15:43:00.390Z,23.08
2023-03-10T15:45:30.468Z,23.33
2023-03-10T15:47:58.329Z,21.83
2023-03-10T15:50:26.307Z,21.88
2023-03-10T15:52:59.036Z,21.65
2023-03-10T15:55:28.285Z,17.35
2023-03-10T15:57:57.808Z,19.05
2023-03-10T16:00:26.870Z,17.05
2023-03-10T16:02:55.119Z,19.33
2023-03-10T16:05:22.857Z,17.02
2023-03-10T16:07:50.984Z,17.92
2023-03-10T16:10:20.864Z,18.42
2023-03-10T16:12:48.272Z,17.35
2023-03-10T16:15:18.232Z,17.20
2023-03-10T16:17:46.869Z,17.35
2023-03-10T16:20:14.731Z,18.13
2023-03-10T16:22:43.074Z,16.02
2023-03-10T16:25:15.417Z,14.20
2023-03-10T16:27:44.679Z,12.43
2023-03-10T16:30:17.143Z,11.57
2023-03-10T16:32:48.909Z,14.85
2023-03-10T16:35:17.928Z,17.85
2023-03-10T16:37:45.280Z,15.90
2023-03-10T16:40:12.971Z,18.20
2023-03-10T16:42:43.394Z,17.35
2023-03-10T16:45:11.255Z,19.02
2023-03-10T16:47:38.780Z,18.73
2023-03-10T16:50:07.888Z,19.65
2023-03-10T16:52:42.562Z,19.33
2023-03-10T16:55:18.508Z,17.17
2023-03-10T16:57:46.379Z,16.30
2023-03-10T17:00:15.146Z,14.38
2023-03-10T17:02:42.465Z,19.55
2023-03-10T17:05:10.378Z,18.50
2023-03-10T17:07:46.449Z,23.90
2023-03-10T17:10:21.137Z,14.50
2023-03-10T17:12:48.421Z,15.43
2023-03-10T17:15:15.704Z,17.27
2023-03-10T17:17:43.260Z,19.95
2023-03-10T17:20:11.113Z,15.52
2023-03-10T17:22:39.080Z,17.27
2023-03-10T17:25:07.916Z,16.00
2023-03-10T17:27:35.303Z,19.98
2023-03-10T17:30:03.014Z,15.82
2023-03-10T17:32:30.833Z,17.02
2023-03-10T17:34:58.236Z,9.10
2023-03-10T17:37:25.446Z,7.38
2023-03-10T17:39:55.047Z,8.15
2023-03-10T17:42:23.774Z,8.88
2023-03-10T17:44:51.277Z,3.47
2023-03-10T17:47:18.831Z,6.60
2023-03-10T17:49:46.339Z,4.30
2023-03-10T17:52:13.573Z,5.68
2023-03-10T17:54:41.092Z,1.60
2023-03-10T17:57:08.485Z,2.15
2023-03-10T17:59:39.088Z,3.35
2023-03-10T18:02:07.027Z,1.35
2023-03-10T18:04:37.165Z,1.40
2023-03-10T18:07:04.640Z,1.02
2023-03-10T18:09:32.459Z,1.83
2023-03-10T18:11:59.835Z,1.92
2023-03-10T18:14:28.506Z,0.90
2023-03-10T18:16:55.913Z,1.60
2023-03-10T18:19:23.123Z,2.25
2023-03-10T18:21:52.571Z,2.92
2023-03-10T18:24:19.965Z,1.85
2023-03-10T18:26:47.751Z,3.47
2023-03-10T18:29:15.248Z,2.55
2023-03-10T18:31:44.309Z,6.20
2023-03-10T18:34:13.230Z,7.95
2023-03-10T18:36:40.536Z,5.40
2023-03-10T18:39:07.936Z,7.38
2023-03-10T18:41:35.903Z,7.80
2023-03-10T18:44:04.988Z,8.85
2023-03-10T18:46:35.381Z,9.73
2023-03-10T18:49:02.684Z,6.72
2023-03-10T18:51:29.938Z,4.20
2023-03-10T18:53:57.239Z,7.15
2023-03-10T18:56:30.764Z,4.68
2023-03-10T18:58:58.788Z,4.85
2023-03-10T19:01:27.000Z,6.45
2023-03-10T19:03:58.326Z,8.10
2023-03-10T19:06:33.264Z,7.68
2023-03-10T19:09:01.545Z,11.70
2023-03-10T19:11:36.857Z,4.50
2023-03-10T19:14:06.477Z,4.75
2023-03-10T19:16:35.562Z,3.83
2023-03-10T19:19:04.058Z,3.97
2023-03-10T19:21:34.006Z,4.68
2023-03-10T19:24:01.382Z,6.93
2023-03-10T19:26:28.665Z,3.42
2023-03-10T19:28:56.336Z,2.55
2023-03-10T19:31:23.923Z,3.22
2023-03-10T19:33:51.325Z,4.50
2023-03-10T19:36:18.749Z,5.70
2023-03-10T19:38:46.141Z,3.88
2023-03-10T19:41:16.893Z,2.40
2023-03-10T19:43:46.838Z,3.72
2023-03-10T19:46:15.880Z,5.50
2023-03-10T19:48:44.421Z,3.05
2023-03-10T19:51:23.101Z,8.93
2023-03-10T19:53:51.957Z,6.15
2023-03-10T19:56:20.461Z,2.58
2023-03-10T19:58:49.378Z,5.35
2023-03-10T20:01:19.943Z,3.83
2023-03-10T20:06:14.600Z,5.57
2023-03-10T20:08:43.237Z,4.78
2023-03-10T20:11:14.547Z,2.03
2023-03-10T20:13:43.346Z,5.10
2023-03-10T20:16:13.145Z,3.78
2023-03-10T20:18:41.203Z,1.90
2023-03-10T20:21:08.631Z,1.65
2023-03-10T20:23:36.045Z,1.10
2023-03-10T20:26:10.169Z,4.28
2023-03-10T20:28:39.794Z,4.22
2023-03-10T20:31:08.067Z,2.70
2023-03-10T20:33:36.615Z,5.10
2023-03-10T20:36:04.808Z,5.25
2023-03-10T20:38:32.489Z,7.35
2023-03-10T20:40:59.943Z,3.50
2023-03-10T20:43:27.234Z,7.28
2023-03-10T20:46:00.554Z,3.30
2023-03-10T20:48:28.387Z,4.43
2023-03-10T20:50:56.634Z,4.57
2023-03-10T20:53:24.325Z,5.65
2023-03-10T20:55:51.636Z,4.07
2023-03-10T20:58:18.928Z,4.25
2023-03-10T21:00:47.360Z,3.80
2023-03-10T21:03:15.254Z,7.18
2023-03-10T21:05:42.943Z,10.50
2023-03-10T21:08:10.978Z,5.72
2023-03-10T21:10:39.762Z,3.72
2023-03-10T21:13:07.299Z,8.02
2023-03-10T21:15:34.825Z,5.93
2023-03-10T21:18:02.073Z,4.72
2023-03-10T21:20:29.583Z,3.92
2023-03-10T21:22:56.903Z,5.70
2023-03-10T21:25:27.047Z,7.63
2023-03-10T21:27:58.809Z,4.10
2023-03-10T21:30:29.752Z,2.83
2023-03-10T21:32:57.848Z,6.65
2023-03-10T21:35:28.260Z,6.50
2023-03-10T21:37:59.688Z,3.85
2023-03-10T21:40:28.125Z,8.77
2023-03-10T21:42:55.908Z,4.47
2023-03-10T21:45:24.335Z,7.20
2023-03-10T21:47:52.010Z,4.90
2023-03-10T21:50:20.276Z,5.28
2023-03-10T21:52:50.939Z,5.30
2023-03-10T21:57:48.801Z,10.57
2023-03-10T22:00:19.146Z,4.43
2023-03-10T22:02:49.673Z,13.10
2023-03-10T22:05:18.353Z,8.93
2023-03-10T22:07:45.818Z,7.25
2023-03-10T22:10:14.235Z,7.72
2023-03-10T22:12:41.936Z,8.75
2023-03-10T22:15:15.526Z,12.82
2023-03-10T22:17:42.856Z,9.13
2023-03-10T22:20:14.576Z,7.70
2023-03-10T22:22:41.830Z,15.52
2023-03-10T22:25:09.747Z,8.00
2023-03-10T22:27:37.138Z,8.82
2023-03-10T22:30:05.150Z,5.13
2023-03-10T22:32:33.250Z,10.20
2023-03-10T22:35:00.732Z,9.68
2023-03-10T22:37:28.039Z,16.15
2023-03-10T22:39:57.023Z,13.52
2023-03-10T22:42:24.296Z,15.75
2023-03-10T22:44:51.764Z,13.93
2023-03-10T22:47:19.134Z,5.90
2023-03-10T22:49:46.536Z,6.13
2023-03-10T22:52:13.992Z,6.10
2023-03-10T22:54:41.380Z,8.70
2023-03-10T22:57:08.913Z,6.00
2023-03-10T22:59:36.331Z,6.88
2023-03-10T23:02:03.679Z,11.10
2023-03-10T23:04:31.197Z,9.10
2023-03-10T23:06:58.507Z,5.97
2023-03-10T23:09:25.812Z,7.07
2023-03-10T23:11:56.361Z,5.80
2023-03-10T23:14:23.764Z,8.63
2023-03-10T23:16:51.037Z,6.28
2023-03-10T23:19:18.297Z,6.50
2023-03-10T23:21:46.273Z,5.97
2023-03-10T23:24:13.728Z,4.53
2023-03-10T23:26:41.296Z,6.82
2023-03-10T23:29:08.498Z,9.77
2023-03-10T23:31:36.143Z,6.70
2023-03-10T23:34:06.595Z,10.43
2023-03-10T23:36:33.962Z,18.00
2023-03-10T23:39:01.269Z,6.40
2023-03-10T23:41:28.568Z,7.70
2023-03-10T23:43:56.765Z,11.25
2023-03-10T23:46:24.172Z,4.20
2023-03-10T23:48:52.371Z,7.30
2023-03-10T23:51:19.695Z,10.18
2023-03-10T23:53:46.954Z,5.72
2023-03-10T23:56:15.391Z,8.65
2023-03-10T23:58:43.144Z,10.40
